Argora, Idaho
Current Conditions -  °F | °C
As of 8:53 AM on Wednesday 28 Jan 2015 (Local Time) from KRXE Reporting Station
Haze Haze  
Wind Chill: 45°   Ceiling: 200
Heat Index: 49°   Visibility: 0.5mi
Dew Point: 35°   Wind: 10mph
Humidity: 59%   Direction: 220°SW
Pressure: 30.24"   Gusts: NA
Location:  44.2396°N, 112.579°W
Report Text: KRXE 281553Z AUTO 22009KT 1/2SM HZ VV002 09/02 A3024 RMK AO2 RAE19 SLP239 P0000 T00940017
Loading
Personal Weather Stations






























Interactive Weather Map New forecast layout! Learn more

10-Day Weather Forecast

Advertisements
Track Severe Weather on mobile